Time;durP1;ratioP1;P1;durP2;ratioP2;P2;SDS_P1;SDS_P2;PMS_P1;PMS_P2;Temp;Humidity;BMP_temperature;BMP_pressure;BME280_temperature;BME280_humidity;BME280_pressure;Samples;Min_cycle;Max_cycle;Signal;HPM_P1;HPM_P2
2021/10/06 00:00:20;;;;;;;2.42;1.50;;;12.70;83.50;;;;;;5103224;28;20058;-71
2021/10/06 00:02:46;;;;;;;4.22;1.85;;;12.70;83.90;;;;;;5110531;28;20038;-71
2021/10/06 00:05:12;;;;;;;7.00;2.30;;;12.80;84.20;;;;;;5102304;28;20120;-72
2021/10/06 00:07:38;;;;;;;4.65;2.60;;;12.80;83.90;;;;;;5105620;28;20466;-73
2021/10/06 00:10:06;;;;;;;4.97;2.72;;;12.80;83.70;;;;;;5104824;28;20085;-69
2021/10/06 00:12:32;;;;;;;6.43;2.83;;;12.70;83.80;;;;;;5107034;28;20061;-71
2021/10/06 00:15:02;;;;;;;5.78;3.80;;;12.70;84.00;;;;;;5071903;28;20028;-72
2021/10/06 00:17:28;;;;;;;3.50;3.20;;;12.70;84.10;;;;;;5087026;28;20077;-72
2021/10/06 00:19:54;;;;;;;3.63;3.33;;;12.70;84.30;;;;;;5087771;28;20232;-72
2021/10/06 00:22:23;;;;;;;5.90;3.40;;;12.70;84.50;;;;;;5090385;28;20056;-72
2021/10/06 00:24:50;;;;;;;7.03;3.72;;;12.60;84.60;;;;;;5088451;28;20032;-73
2021/10/06 00:27:16;;;;;;;6.15;4.00;;;12.70;84.80;;;;;;5108469;28;20032;-72
2021/10/06 00:29:42;;;;;;;9.55;3.72;;;12.60;84.80;;;;;;5106737;28;20367;-71
2021/10/06 00:32:08;;;;;;;7.07;3.15;;;12.60;84.90;;;;;;5104958;28;20030;-71
2021/10/06 00:34:34;;;;;;;6.70;3.47;;;12.60;85.00;;;;;;5106473;28;20379;-72
2021/10/06 00:36:59;;;;;;;4.57;2.80;;;12.70;85.00;;;;;;5072144;28;20401;-72
2021/10/06 00:39:25;;;;;;;6.63;3.00;;;12.60;85.00;;;;;;5108397;28;20027;-71
2021/10/06 00:41:50;;;;;;;8.32;3.03;;;12.60;85.00;;;;;;5102262;28;20044;-72
2021/10/06 00:44:21;;;;;;;4.88;2.80;;;12.60;85.00;;;;;;5088843;28;20067;-72
2021/10/06 00:46:48;;;;;;;6.85;2.78;;;12.60;84.90;;;;;;5107236;28;20027;-71
2021/10/06 00:49:18;;;;;;;7.28;2.60;;;12.60;85.00;;;;;;5109213;28;20435;-71
2021/10/06 00:51:44;;;;;;;6.07;3.60;;;12.60;85.10;;;;;;5106605;28;20035;-72
2021/10/06 00:54:10;;;;;;;6.15;2.60;;;12.60;85.10;;;;;;5108416;28;20076;-72
2021/10/06 00:56:36;;;;;;;5.65;2.47;;;12.60;85.10;;;;;;5089887;28;20118;-72
2021/10/06 00:59:02;;;;;;;6.10;2.65;;;12.60;85.00;;;;;;5103241;28;20046;-72
2021/10/06 01:01:28;;;;;;;5.80;2.20;;;12.60;85.00;;;;;;5078258;28;20110;-72
2021/10/06 01:03:54;;;;;;;7.72;2.25;;;12.60;85.10;;;;;;5102786;28;20118;-73
2021/10/06 01:06:19;;;;;;;8.18;2.20;;;12.60;85.20;;;;;;5068373;28;20405;-72
2021/10/06 01:08:45;;;;;;;7.00;2.30;;;12.60;85.30;;;;;;5091195;28;20055;-72
2021/10/06 01:11:12;;;;;;;8.30;1.98;;;12.60;85.40;;;;;;5070209;28;20114;-72
2021/10/06 01:13:38;;;;;;;11.25;2.38;;;12.60;85.20;;;;;;5090202;28;20019;-72
2021/10/06 01:16:04;;;;;;;8.73;2.00;;;12.60;84.90;;;;;;5085967;28;20042;-72
2021/10/06 01:18:30;;;;;;;6.88;1.80;;;12.60;85.00;;;;;;5088914;28;20798;-72
2021/10/06 01:20:56;;;;;;;9.75;2.15;;;12.60;85.00;;;;;;5107493;28;20031;-73
2021/10/06 01:23:22;;;;;;;5.90;1.50;;;12.60;85.10;;;;;;5086350;28;20027;-71
2021/10/06 01:25:47;;;;;;;4.65;1.77;;;12.60;85.10;;;;;;5106108;28;20101;-72
2021/10/06 01:28:13;;;;;;;7.53;1.95;;;12.60;85.20;;;;;;5086981;28;20085;-71
2021/10/06 01:30:39;;;;;;;6.28;1.77;;;12.60;85.20;;;;;;5107443;28;20035;-71
2021/10/06 01:33:05;;;;;;;3.35;1.67;;;12.60;85.20;;;;;;5086949;28;20031;-71
2021/10/06 01:35:31;;;;;;;12.05;2.15;;;12.60;85.30;;;;;;5088489;28;20088;-72
2021/10/06 01:37:58;;;;;;;4.70;1.80;;;12.60;85.00;;;;;;5071988;28;20363;-72
2021/10/06 01:40:23;;;;;;;7.22;1.67;;;12.60;85.00;;;;;;5100983;28;20028;-71
2021/10/06 01:42:52;;;;;;;8.25;2.00;;;12.60;85.10;;;;;;5101742;28;20474;-72
2021/10/06 01:45:24;;;;;;;7.70;2.20;;;12.60;85.40;;;;;;5103926;28;20031;-74
2021/10/06 01:47:53;;;;;;;7.40;2.20;;;12.60;84.70;;;;;;5085640;28;20032;-70
2021/10/06 01:50:24;;;;;;;6.38;1.73;;;12.60;85.10;;;;;;5105900;28;20027;-71
2021/10/06 01:52:51;;;;;;;7.40;2.42;;;12.60;84.40;;;;;;5105817;28;20040;-71
2021/10/06 01:55:22;;;;;;;13.63;2.30;;;12.50;84.50;;;;;;5089694;28;20046;-71
2021/10/06 01:57:48;;;;;;;7.90;2.03;;;12.50;84.30;;;;;;5107091;28;20437;-71
2021/10/06 02:00:14;;;;;;;5.30;1.63;;;12.50;84.20;;;;;;5106054;28;20031;-70
2021/10/06 02:02:40;;;;;;;6.40;1.77;;;12.50;84.40;;;;;;5071299;28;20105;-73
2021/10/06 02:05:06;;;;;;;5.13;1.55;;;12.50;84.40;;;;;;5108118;28;20031;-72
2021/10/06 02:07:32;;;;;;;6.82;1.50;;;12.50;84.60;;;;;;5105663;28;20051;-72
2021/10/06 02:09:57;;;;;;;9.88;2.13;;;12.50;84.60;;;;;;5108082;28;20028;-73
2021/10/06 02:12:23;;;;;;;7.32;2.25;;;12.50;84.60;;;;;;5107465;28;20035;-71
2021/10/06 02:14:49;;;;;;;5.95;1.98;;;12.50;84.90;;;;;;5106900;28;20147;-71
2021/10/06 02:17:14;;;;;;;8.90;2.03;;;12.50;85.10;;;;;;5105182;28;20032;-73
2021/10/06 02:19:40;;;;;;;5.72;2.00;;;12.50;85.10;;;;;;5082515;28;20124;-73
2021/10/06 02:22:06;;;;;;;5.78;1.80;;;12.40;85.00;;;;;;5069968;28;20117;-72
2021/10/06 02:24:31;;;;;;;9.10;2.63;;;12.40;85.10;;;;;;5106785;28;20044;-71
2021/10/06 02:26:57;;;;;;;5.22;1.70;;;12.40;85.20;;;;;;5085207;28;20028;-71
2021/10/06 02:29:23;;;;;;;7.45;1.90;;;12.40;85.30;;;;;;5108066;28;20689;-71
2021/10/06 02:31:48;;;;;;;6.32;1.90;;;12.40;85.40;;;;;;5107504;28;20024;-73
2021/10/06 02:34:15;;;;;;;5.75;1.67;;;12.40;85.40;;;;;;5089945;28;20020;-70
2021/10/06 02:36:40;;;;;;;7.82;2.13;;;12.40;85.50;;;;;;5065128;28;20064;-70
2021/10/06 02:39:06;;;;;;;6.43;2.47;;;12.40;85.60;;;;;;5102595;28;20067;-72
2021/10/06 02:41:32;;;;;;;9.55;2.00;;;12.40;85.40;;;;;;5072346;28;20047;-71
2021/10/06 02:43:57;;;;;;;6.60;1.92;;;12.40;86.00;;;;;;5108420;28;20100;-71
2021/10/06 02:46:23;;;;;;;6.70;2.10;;;12.40;85.30;;;;;;5107536;28;20480;-71
2021/10/06 02:48:49;;;;;;;6.63;2.10;;;12.40;85.50;;;;;;5107580;28;20036;-73
2021/10/06 02:51:15;;;;;;;6.50;2.20;;;12.40;85.90;;;;;;5085060;28;20031;-72
2021/10/06 02:53:40;;;;;;;6.07;1.85;;;12.40;85.30;;;;;;5110882;28;20071;-71
2021/10/06 02:56:06;;;;;;;5.38;1.95;;;12.40;85.40;;;;;;5107394;28;20050;-72
2021/10/06 02:58:31;;;;;;;6.03;2.20;;;12.40;85.50;;;;;;5073923;28;20085;-73
2021/10/06 03:00:57;;;;;;;7.40;1.90;;;12.30;85.50;;;;;;5112116;28;20070;-71
2021/10/06 03:03:23;;;;;;;7.93;2.00;;;12.30;85.60;;;;;;5109192;28;20037;-72
2021/10/06 03:05:48;;;;;;;6.88;1.80;;;12.30;85.90;;;;;;5109311;28;20031;-72
2021/10/06 03:08:14;;;;;;;9.18;2.28;;;12.30;86.00;;;;;;5092907;28;20111;-72
2021/10/06 03:10:40;;;;;;;11.68;2.20;;;12.30;86.00;;;;;;5110764;28;20500;-72
2021/10/06 03:13:06;;;;;;;6.85;2.25;;;12.30;85.80;;;;;;5110864;28;20115;-72
2021/10/06 03:15:31;;;;;;;7.18;2.40;;;12.30;86.00;;;;;;5091135;28;20059;-72
2021/10/06 03:17:57;;;;;;;5.57;2.20;;;12.30;85.90;;;;;;5111029;28;20023;-72
2021/10/06 03:20:23;;;;;;;6.82;2.55;;;12.30;86.00;;;;;;5092595;28;20036;-71
2021/10/06 03:22:48;;;;;;;6.47;2.42;;;12.30;85.90;;;;;;5105372;28;20036;-71
2021/10/06 03:25:14;;;;;;;5.85;2.30;;;12.30;86.00;;;;;;5102417;28;20043;-71
2021/10/06 03:27:40;;;;;;;7.85;2.45;;;12.30;86.00;;;;;;5107727;27;20027;-71
2021/10/06 03:30:08;;;;;;;7.00;2.55;;;12.30;86.10;;;;;;5106330;28;20036;-71
2021/10/06 03:32:34;;;;;;;14.10;2.72;;;12.30;86.20;;;;;;5108777;28;20028;-70
2021/10/06 03:34:59;;;;;;;6.65;2.42;;;12.20;86.30;;;;;;5091901;28;20035;-70
2021/10/06 03:37:25;;;;;;;5.65;2.65;;;12.20;86.50;;;;;;5109127;28;20450;-73
2021/10/06 03:39:51;;;;;;;5.90;2.35;;;12.20;86.50;;;;;;5108812;28;20034;-72
2021/10/06 03:42:16;;;;;;;8.82;2.70;;;12.20;86.60;;;;;;5088101;28;20028;-72
2021/10/06 03:44:42;;;;;;;5.72;2.70;;;12.20;86.60;;;;;;5088481;28;20031;-71
2021/10/06 03:47:08;;;;;;;8.48;2.63;;;12.20;86.50;;;;;;5088981;28;20050;-71
2021/10/06 03:49:34;;;;;;;6.38;2.60;;;12.20;86.60;;;;;;5089900;28;20350;-71
2021/10/06 03:52:03;;;;;;;8.70;3.08;;;12.20;86.80;;;;;;5106425;28;20066;-71
2021/10/06 03:54:28;;;;;;;8.93;2.55;;;12.20;87.00;;;;;;5105036;28;20148;-72
2021/10/06 03:56:54;;;;;;;8.55;2.72;;;12.10;86.80;;;;;;5085451;28;20533;-71
2021/10/06 03:59:20;;;;;;;4.95;2.30;;;12.20;86.70;;;;;;5073472;28;20391;-72
2021/10/06 04:01:46;;;;;;;7.10;2.45;;;12.10;86.90;;;;;;5089395;28;20035;-72
2021/10/06 04:04:12;;;;;;;9.93;2.47;;;12.10;87.00;;;;;;5090531;28;21267;-71
2021/10/06 04:06:37;;;;;;;7.20;2.80;;;12.10;87.10;;;;;;5106759;28;20088;-71
2021/10/06 04:09:03;;;;;;;8.40;2.67;;;12.10;87.20;;;;;;5091305;28;20049;-72
2021/10/06 04:11:29;;;;;;;8.23;3.13;;;12.10;87.10;;;;;;5091179;28;20032;-70
2021/10/06 04:13:54;;;;;;;4.63;2.47;;;12.10;87.20;;;;;;5109421;28;20035;-72
2021/10/06 04:16:20;;;;;;;6.07;2.45;;;12.10;87.10;;;;;;5056430;28;20039;-73
2021/10/06 04:18:46;;;;;;;4.65;2.53;;;12.10;87.20;;;;;;5110044;28;20032;-73
2021/10/06 04:21:11;;;;;;;7.65;2.60;;;12.10;87.30;;;;;;5099805;28;20479;-70
2021/10/06 04:23:37;;;;;;;4.10;2.00;;;12.10;87.40;;;;;;5107331;28;20110;-73
2021/10/06 04:26:03;;;;;;;3.67;1.70;;;12.10;87.30;;;;;;5088572;28;20131;-73
2021/10/06 04:28:28;;;;;;;4.30;1.50;;;12.00;87.30;;;;;;5107915;28;20023;-70
2021/10/06 04:30:54;;;;;;;3.03;1.48;;;12.00;87.30;;;;;;5102140;28;20039;-70
2021/10/06 04:33:20;;;;;;;3.42;1.20;;;12.00;86.90;;;;;;5102260;28;20032;-69
2021/10/06 04:35:45;;;;;;;3.30;1.20;;;12.00;87.00;;;;;;5086297;28;20031;-70
2021/10/06 04:38:11;;;;;;;2.63;1.05;;;12.00;86.90;;;;;;5070713;28;20031;-70
2021/10/06 04:40:37;;;;;;;1.90;1.20;;;12.00;86.70;;;;;;5107302;28;20118;-71
2021/10/06 04:43:08;;;;;;;2.95;1.08;;;12.00;86.60;;;;;;5091657;28;20135;-71
2021/10/06 04:45:34;;;;;;;4.13;1.23;;;12.00;86.80;;;;;;5083269;28;20122;-70
2021/10/06 04:47:59;;;;;;;1.92;1.55;;;12.00;86.60;;;;;;5067642;28;20545;-69
2021/10/06 04:50:29;;;;;;;3.97;1.50;;;12.00;86.70;;;;;;5089305;28;20116;-70
2021/10/06 04:52:55;;;;;;;3.08;1.75;;;12.10;86.80;;;;;;5090271;28;20043;-71
2021/10/06 04:55:21;;;;;;;4.57;2.50;;;12.00;86.70;;;;;;5074484;28;20127;-70
2021/10/06 04:57:46;;;;;;;4.90;1.88;;;12.00;87.00;;;;;;5067762;28;20460;-72
2021/10/06 05:00:12;;;;;;;6.57;2.38;;;12.00;87.10;;;;;;5085616;28;20036;-72
2021/10/06 05:02:38;;;;;;;6.25;2.30;;;12.00;87.40;;;;;;5109176;28;20501;-72
2021/10/06 05:05:04;;;;;;;6.30;2.95;;;12.00;87.50;;;;;;5089037;28;20024;-72
2021/10/06 05:07:30;;;;;;;6.25;2.70;;;11.90;87.60;;;;;;5104570;28;20057;-71
2021/10/06 05:09:56;;;;;;;6.20;2.90;;;12.00;87.70;;;;;;5071579;28;20035;-71
2021/10/06 05:12:21;;;;;;;6.95;3.00;;;12.00;87.70;;;;;;5069635;28;20036;-72
2021/10/06 05:14:47;;;;;;;6.45;3.03;;;11.90;87.50;;;;;;5086643;28;20031;-71
2021/10/06 05:17:13;;;;;;;5.97;2.67;;;11.90;87.50;;;;;;5088518;28;20033;-71
2021/10/06 05:19:38;;;;;;;5.68;2.67;;;11.90;87.50;;;;;;5107912;28;20031;-72
2021/10/06 05:22:04;;;;;;;7.85;2.95;;;11.90;87.70;;;;;;5108086;28;20059;-70
2021/10/06 05:24:32;;;;;;;7.15;3.25;;;11.90;87.50;;;;;;5107288;28;20061;-71
2021/10/06 05:27:00;;;;;;;7.38;3.10;;;11.90;87.50;;;;;;5063624;28;20039;-72
2021/10/06 05:29:26;;;;;;;7.30;2.83;;;11.90;87.80;;;;;;5104064;28;20036;-72
2021/10/06 05:31:52;;;;;;;7.93;2.90;;;11.90;87.80;;;;;;5073007;28;20039;-71
2021/10/06 05:34:17;;;;;;;9.75;3.13;;;11.90;87.90;;;;;;5090732;28;20107;-72
2021/10/06 05:36:43;;;;;;;8.13;3.05;;;11.90;87.80;;;;;;5088762;28;20040;-71
2021/10/06 05:39:09;;;;;;;5.50;2.70;;;11.90;88.00;;;;;;5076420;28;20024;-72
2021/10/06 05:41:34;;;;;;;6.93;3.20;;;11.80;88.10;;;;;;5087931;28;20063;-72
2021/10/06 05:44:00;;;;;;;9.07;3.10;;;11.80;88.00;;;;;;5089264;28;20043;-73
2021/10/06 05:46:27;;;;;;;7.65;2.97;;;11.80;88.10;;;;;;5089060;28;20031;-72
2021/10/06 05:48:53;;;;;;;7.85;2.92;;;11.80;88.40;;;;;;5086391;28;20027;-71
2021/10/06 05:51:18;;;;;;;7.22;3.13;;;11.80;88.60;;;;;;5070905;28;20026;-71
2021/10/06 05:53:44;;;;;;;7.05;3.00;;;11.80;88.50;;;;;;5070942;28;20098;-72
2021/10/06 05:56:10;;;;;;;8.65;3.08;;;11.80;88.30;;;;;;5064123;28;20035;-71
2021/10/06 05:58:35;;;;;;;9.32;3.88;;;11.80;88.30;;;;;;5069502;28;20453;-72
2021/10/06 06:01:01;;;;;;;8.60;3.10;;;11.80;88.40;;;;;;5069294;28;20487;-72
2021/10/06 06:03:27;;;;;;;8.43;3.10;;;11.80;88.30;;;;;;5067828;28;20089;-72
2021/10/06 06:05:55;;;;;;;8.63;3.08;;;11.80;88.60;;;;;;5065059;28;20115;-72
2021/10/06 06:08:21;;;;;;;8.07;2.85;;;11.70;88.40;;;;;;5065508;28;20036;-72
2021/10/06 06:10:46;;;;;;;9.35;3.30;;;11.80;88.60;;;;;;5064102;28;20033;-70
2021/10/06 06:13:12;;;;;;;6.63;2.78;;;11.70;88.60;;;;;;5062475;28;20037;-72
2021/10/06 06:15:41;;;;;;;9.27;3.20;;;11.70;88.70;;;;;;5065058;28;20032;-71
2021/10/06 06:18:07;;;;;;;6.47;2.78;;;11.80;88.60;;;;;;5066839;28;20446;-72
2021/10/06 06:20:32;;;;;;;5.93;3.00;;;11.70;88.60;;;;;;5066308;28;20072;-71
2021/10/06 06:22:58;;;;;;;8.13;3.20;;;11.70;88.70;;;;;;5033104;28;20043;-70
2021/10/06 06:25:24;;;;;;;6.72;3.20;;;11.70;88.70;;;;;;5060875;28;20033;-72
2021/10/06 06:27:50;;;;;;;8.50;3.33;;;11.70;88.80;;;;;;5078715;28;20507;-71
2021/10/06 06:30:16;;;;;;;9.88;4.22;;;11.70;88.80;;;;;;5062628;28;20025;-72
2021/10/06 06:32:42;;;;;;;7.05;3.15;;;11.70;88.80;;;;;;5065500;28;20037;-72
2021/10/06 06:35:09;;;;;;;7.15;3.10;;;11.70;88.70;;;;;;5069343;28;20029;-71
2021/10/06 06:37:34;;;;;;;9.77;3.08;;;11.70;88.80;;;;;;5065810;28;20059;-72
2021/10/06 06:40:00;;;;;;;8.75;3.10;;;11.70;88.80;;;;;;5067407;28;20451;-71
2021/10/06 06:42:26;;;;;;;9.45;3.20;;;11.70;89.00;;;;;;5071422;28;20028;-70
2021/10/06 06:44:55;;;;;;;5.75;3.17;;;11.60;89.10;;;;;;5070391;28;20043;-71
2021/10/06 06:47:21;;;;;;;7.20;3.30;;;11.60;89.10;;;;;;5068452;28;20047;-71
2021/10/06 06:49:46;;;;;;;6.63;2.67;;;11.70;89.00;;;;;;5070422;28;20822;-72
2021/10/06 06:52:12;;;;;;;6.22;2.95;;;11.70;88.90;;;;;;5082037;28;20052;-70
2021/10/06 06:54:38;;;;;;;8.27;3.33;;;11.70;89.10;;;;;;5089133;28;20169;-71
2021/10/06 06:57:04;;;;;;;5.35;3.25;;;11.70;89.10;;;;;;5085214;28;20719;-70
2021/10/06 06:59:29;;;;;;;6.47;2.72;;;11.60;89.10;;;;;;5105777;28;20034;-72
2021/10/06 07:01:57;;;;;;;6.28;2.90;;;11.60;89.20;;;;;;5105001;28;20562;-70
2021/10/06 07:04:23;;;;;;;8.93;3.28;;;11.60;89.30;;;;;;5111180;28;20031;-69
2021/10/06 07:06:52;;;;;;;7.20;3.08;;;11.60;89.40;;;;;;5107777;28;20104;-72
2021/10/06 07:09:22;;;;;;;4.30;3.10;;;11.60;89.60;;;;;;5090309;28;20550;-69
2021/10/06 07:11:48;;;;;;;7.32;3.25;;;11.60;90.00;;;;;;5107797;28;20034;-72
2021/10/06 07:14:15;;;;;;;6.63;3.70;;;11.60;89.70;;;;;;5111510;28;20019;-69
2021/10/06 07:16:41;;;;;;;7.47;2.95;;;11.60;89.80;;;;;;5090513;28;20031;-72
2021/10/06 07:19:06;;;;;;;5.90;3.35;;;11.60;89.80;;;;;;5110666;28;20525;-73
2021/10/06 07:21:32;;;;;;;8.05;3.15;;;11.60;89.90;;;;;;5074606;28;20028;-70
2021/10/06 07:23:57;;;;;;;8.63;3.42;;;11.60;89.90;;;;;;5091954;28;20041;-72
2021/10/06 07:26:23;;;;;;;9.35;3.85;;;11.70;90.00;;;;;;5104932;28;20452;-72
2021/10/06 07:28:49;;;;;;;5.95;2.90;;;11.70;89.90;;;;;;5093413;28;20367;-69
2021/10/06 07:31:15;;;;;;;4.82;2.30;;;11.70;89.80;;;;;;5106758;28;20031;-72
2021/10/06 07:33:40;;;;;;;4.45;2.67;;;11.70;89.80;;;;;;5090140;28;20043;-71
2021/10/06 07:36:06;;;;;;;5.97;2.90;;;11.70;89.90;;;;;;5109948;28;20438;-70
2021/10/06 07:38:32;;;;;;;4.30;2.92;;;11.70;89.80;;;;;;5103882;28;20505;-71
2021/10/06 07:40:57;;;;;;;8.63;2.90;;;11.70;89.90;;;;;;5072997;28;20024;-70
2021/10/06 07:43:23;;;;;;;3.63;2.20;;;11.70;89.90;;;;;;5091326;28;20441;-72
2021/10/06 07:45:50;;;;;;;3.42;2.67;;;11.70;90.00;;;;;;5109614;28;20031;-70
2021/10/06 07:48:16;;;;;;;6.85;2.88;;;11.80;90.10;;;;;;5106920;28;20032;-70
2021/10/06 07:50:42;;;;;;;6.78;3.13;;;11.80;90.10;;;;;;5106531;28;20043;-70
2021/10/06 07:53:08;;;;;;;6.70;3.13;;;11.80;90.10;;;;;;5108333;28;20048;-70
2021/10/06 07:55:34;;;;;;;4.88;3.10;;;11.80;90.10;;;;;;5109322;28;20032;-70
2021/10/06 07:57:59;;;;;;;9.25;3.05;;;11.80;90.10;;;;;;5064722;28;20039;-72
2021/10/06 08:00:25;;;;;;;6.45;2.67;;;11.80;90.00;;;;;;5089708;28;20138;-72
2021/10/06 08:02:51;;;;;;;8.02;3.38;;;11.80;90.00;;;;;;5110620;28;20085;-70
2021/10/06 08:05:16;;;;;;;4.80;2.33;;;11.80;90.00;;;;;;5103387;28;20028;-70
2021/10/06 08:07:42;;;;;;;5.22;3.00;;;11.90;90.10;;;;;;5089555;28;20039;-72
2021/10/06 08:10:08;;;;;;;5.68;2.90;;;11.90;90.10;;;;;;5110172;28;20031;-72
2021/10/06 08:12:34;;;;;;;9.40;2.78;;;11.90;90.10;;;;;;5090857;28;20040;-72
2021/10/06 08:15:00;;;;;;;5.93;3.20;;;11.90;90.10;;;;;;5109846;28;20797;-72
2021/10/06 08:17:26;;;;;;;3.38;2.60;;;11.90;90.20;;;;;;5089504;28;20058;-73
2021/10/06 08:19:51;;;;;;;3.33;2.60;;;11.90;90.20;;;;;;5105355;28;20036;-73
2021/10/06 08:22:18;;;;;;;3.90;3.10;;;11.90;90.20;;;;;;5103637;28;20042;-72
2021/10/06 08:24:44;;;;;;;7.82;3.33;;;11.90;90.20;;;;;;5087093;28;20114;-72
2021/10/06 08:27:12;;;;;;;5.22;3.35;;;11.90;90.20;;;;;;5071756;28;20176;-70
2021/10/06 08:29:37;;;;;;;5.47;2.85;;;11.90;90.20;;;;;;5107736;28;20040;-71
2021/10/06 08:32:04;;;;;;;4.47;3.10;;;11.90;90.20;;;;;;5110392;28;20035;-72
2021/10/06 08:34:29;;;;;;;5.70;3.08;;;11.90;90.20;;;;;;5091715;28;20027;-73
2021/10/06 08:36:55;;;;;;;8.52;3.00;;;11.90;90.20;;;;;;5102790;28;20042;-70
2021/10/06 08:39:21;;;;;;;5.43;3.10;;;11.90;90.30;;;;;;5100504;28;20114;-72
2021/10/06 08:41:47;;;;;;;6.03;3.30;;;11.90;90.30;;;;;;5088869;28;20474;-72
2021/10/06 08:44:12;;;;;;;4.65;2.70;;;11.90;90.30;;;;;;5105909;28;20032;-70
2021/10/06 08:46:38;;;;;;;4.88;2.92;;;12.00;90.30;;;;;;5108653;28;20081;-70
2021/10/06 08:49:05;;;;;;;8.57;3.60;;;12.00;90.60;;;;;;5090405;28;20035;-71
2021/10/06 08:51:31;;;;;;;5.60;3.72;;;12.00;90.40;;;;;;5090978;28;20549;-71
2021/10/06 08:53:57;;;;;;;4.03;2.70;;;12.00;90.40;;;;;;5106164;28;20157;-72
2021/10/06 08:56:25;;;;;;;5.38;2.88;;;12.10;90.50;;;;;;5085060;28;20043;-71
2021/10/06 08:58:50;;;;;;;3.90;2.80;;;12.10;90.60;;;;;;5090077;28;20134;-72
2021/10/06 09:01:25;;;;;;;4.55;3.22;;;12.10;90.50;;;;;;5101972;28;20217;-72
2021/10/06 09:04:03;;;;;;;4.82;3.05;;;12.10;90.50;;;;;;5088427;28;20593;-73
2021/10/06 09:06:37;;;;;;;2.85;2.50;;;12.20;90.50;;;;;;5085101;28;20043;-73
2021/10/06 09:09:20;;;;;;;5.32;3.13;;;12.20;90.50;;;;;;5104839;28;20066;-72
2021/10/06 09:11:48;;;;;;;3.03;2.63;;;12.20;90.50;;;;;;5104212;28;20027;-70
2021/10/06 09:14:15;;;;;;;2.70;2.50;;;12.20;90.50;;;;;;5089840;28;20462;-70
2021/10/06 09:16:41;;;;;;;2.45;2.25;;;12.20;90.50;;;;;;5083765;28;20529;-72
2021/10/06 09:19:08;;;;;;;2.95;2.35;;;12.20;90.60;;;;;;5084651;28;20021;-72
2021/10/06 09:21:56;;;;;;;3.20;2.22;;;12.20;90.60;;;;;;5106807;28;20032;-72
2021/10/06 09:24:23;;;;;;;4.32;2.13;;;12.20;90.70;;;;;;5105975;28;20020;-72
2021/10/06 09:27:03;;;;;;;3.75;2.60;;;12.20;90.60;;;;;;5103840;28;20062;-73
2021/10/06 09:29:29;;;;;;;3.20;2.67;;;12.20;90.70;;;;;;5100289;28;20039;-72
2021/10/06 09:31:55;;;;;;;2.35;2.13;;;12.20;90.80;;;;;;5106611;28;20031;-72
2021/10/06 09:34:21;;;;;;;2.78;2.50;;;12.30;90.90;;;;;;5101106;28;20020;-72
2021/10/06 09:36:47;;;;;;;3.92;2.80;;;12.30;90.90;;;;;;5063664;28;20058;-71
2021/10/06 09:39:12;;;;;;;3.28;2.70;;;12.30;90.90;;;;;;5072657;28;20056;-71
2021/10/06 09:41:39;;;;;;;4.32;2.90;;;12.40;90.90;;;;;;5087321;28;20507;-72
2021/10/06 09:44:06;;;;;;;3.65;2.30;;;12.50;90.90;;;;;;5101254;28;20377;-71
2021/10/06 09:46:52;;;;;;;3.88;2.25;;;12.50;90.80;;;;;;5085593;28;20122;-70
2021/10/06 09:49:26;;;;;;;6.15;2.58;;;12.60;90.90;;;;;;5107725;27;20039;-72
2021/10/06 09:51:54;;;;;;;5.05;2.40;;;12.60;90.90;;;;;;5086446;28;20047;-72
2021/10/06 09:54:20;;;;;;;5.88;2.70;;;12.60;90.90;;;;;;5105304;28;20030;-72
2021/10/06 09:56:48;;;;;;;6.07;2.40;;;12.60;90.90;;;;;;5103246;28;20031;-73
2021/10/06 09:59:15;;;;;;;4.22;2.20;;;12.70;90.90;;;;;;5101838;28;20154;-73
2021/10/06 10:01:43;;;;;;;3.75;2.40;;;12.70;90.90;;;;;;5104525;27;20035;-70
2021/10/06 10:04:11;;;;;;;7.13;2.40;;;12.70;90.80;;;;;;5087443;28;20462;-70
2021/10/06 10:06:38;;;;;;;3.97;2.33;;;12.70;90.80;;;;;;5105670;28;20042;-71
2021/10/06 10:09:07;;;;;;;3.55;2.20;;;12.70;90.80;;;;;;5089872;28;20047;-71
2021/10/06 10:11:37;;;;;;;5.28;1.90;;;12.80;90.90;;;;;;5105605;28;20028;-72
2021/10/06 10:14:06;;;;;;;2.90;1.50;;;12.80;90.90;;;;;;5104517;28;20379;-70
2021/10/06 10:16:33;;;;;;;9.13;2.17;;;12.80;90.70;;;;;;5105890;28;20208;-72
2021/10/06 10:19:05;;;;;;;5.72;2.00;;;12.80;90.60;;;;;;5088681;28;20031;-70
2021/10/06 10:21:32;;;;;;;5.07;1.80;;;12.80;90.50;;;;;;5107575;28;20115;-70
2021/10/06 10:24:25;;;;;;;5.95;1.60;;;12.80;90.40;;;;;;5106172;28;20032;-72
2021/10/06 10:26:59;;;;;;;5.05;1.80;;;12.70;90.40;;;;;;5091517;28;20047;-72
2021/10/06 10:29:38;;;;;;;5.18;1.83;;;12.70;90.60;;;;;;5106086;28;20036;-72
2021/10/06 10:32:26;;;;;;;3.35;1.88;;;12.70;90.60;;;;;;5101365;28;20420;-69
2021/10/06 10:35:01;;;;;;;5.93;2.40;;;12.80;90.70;;;;;;5104334;28;20027;-70
2021/10/06 10:37:48;;;;;;;3.95;2.63;;;12.80;90.70;;;;;;5088594;28;20131;-72
2021/10/06 10:40:32;;;;;;;5.47;2.30;;;12.80;90.70;;;;;;5105333;28;20095;-70
2021/10/06 10:43:20;;;;;;;5.93;2.10;;;12.90;90.70;;;;;;5082771;28;20031;-70
2021/10/06 10:46:09;;;;;;;7.60;3.38;;;12.90;90.80;;;;;;5103061;28;20024;-73
2021/10/06 10:48:58;;;;;;;5.43;2.50;;;13.00;90.90;;;;;;5104824;28;20052;-72
2021/10/06 10:51:44;;;;;;;6.00;2.47;;;13.10;90.80;;;;;;5101051;28;20067;-73
2021/10/06 10:54:11;;;;;;;5.28;2.50;;;13.20;90.90;;;;;;5104866;28;20028;-72
2021/10/06 10:56:42;;;;;;;5.07;2.00;;;13.40;90.90;;;;;;5082830;28;20032;-71
2021/10/06 10:59:11;;;;;;;5.55;2.28;;;13.40;90.70;;;;;;5105854;28;20020;-72
2021/10/06 11:01:41;;;;;;;4.30;1.90;;;13.50;90.60;;;;;;5104893;28;20039;-70
2021/10/06 11:04:39;;;;;;;6.40;2.20;;;13.50;90.50;;;;;;5103224;28;20058;-71
2021/10/06 11:07:19;;;;;;;6.15;2.08;;;13.60;90.40;;;;;;5028533;28;20494;-71
2021/10/06 11:09:55;;;;;;;4.82;1.75;;;13.60;90.40;;;;;;5102591;28;20040;-72
2021/10/06 11:12:20;;;;;;;5.20;1.85;;;13.70;90.30;;;;;;5101777;28;20063;-71
2021/10/06 11:15:25;;;;;;;6.20;1.83;;;13.70;90.20;;;;;;5104092;28;20470;-70
2021/10/06 11:18:19;;;;;;;7.93;3.15;;;13.70;90.20;;;;;;5089143;28;20027;-72
2021/10/06 11:20:59;;;;;;;5.47;2.03;;;13.80;90.20;;;;;;5103051;28;20038;-71
2021/10/06 11:23:31;;;;;;;5.40;1.60;;;13.80;89.90;;;;;;5100497;28;20051;-73
2021/10/06 11:26:04;;;;;;;5.45;1.63;;;13.80;90.20;;;;;;5103793;28;20534;-73
2021/10/06 11:28:40;;;;;;;3.45;1.33;;;14.00;90.10;;;;;;5108530;28;20027;-70
2021/10/06 11:31:06;;;;;;;3.65;1.30;;;14.20;89.60;;;;;;5107906;28;20169;-71
2021/10/06 11:33:33;;;;;;;6.70;1.45;;;14.20;88.60;;;;;;5106578;28;20551;-71
2021/10/06 11:36:14;;;;;;;5.28;1.58;;;14.30;88.90;;;;;;5098847;28;20032;-70
2021/10/06 11:38:42;;;;;;;6.78;1.85;;;14.30;89.40;;;;;;5090681;28;20028;-72
2021/10/06 11:41:09;;;;;;;5.20;1.42;;;14.40;89.20;;;;;;5106849;28;20027;-74
2021/10/06 11:43:43;;;;;;;5.80;1.60;;;14.60;89.10;;;;;;5081215;28;20101;-71
2021/10/06 11:46:34;;;;;;;3.63;1.55;;;14.90;87.80;;;;;;5107037;28;20040;-73
2021/10/06 11:49:04;;;;;;;3.83;1.30;;;14.90;87.10;;;;;;5107988;28;20419;-71
2021/10/06 11:51:48;;;;;;;4.95;1.63;;;14.90;86.90;;;;;;5107180;28;20027;-73
2021/10/06 11:54:16;;;;;;;2.33;1.10;;;14.90;86.50;;;;;;5086488;28;20027;-71
2021/10/06 11:56:43;;;;;;;3.55;1.08;;;14.90;87.20;;;;;;5104825;28;20481;-72
2021/10/06 11:59:20;;;;;;;4.35;1.90;;;15.00;87.20;;;;;;5091247;28;20097;-70
2021/10/06 12:02:04;;;;;;;3.88;1.40;;;14.90;86.20;;;;;;5084738;28;20031;-72
2021/10/06 12:04:32;;;;;;;4.65;1.58;;;14.90;86.20;;;;;;5091753;27;20428;-71
2021/10/06 12:07:00;;;;;;;7.63;1.70;;;14.90;86.30;;;;;;5109542;28;20015;-73
2021/10/06 12:09:48;;;;;;;6.10;1.90;;;14.80;86.70;;;;;;5109482;28;20039;-72
2021/10/06 12:12:21;;;;;;;4.00;1.45;;;14.80;86.90;;;;;;5091080;28;20016;-72
2021/10/06 12:14:53;;;;;;;4.45;1.55;;;14.80;86.90;;;;;;5103543;28;20031;-74
2021/10/06 12:17:21;;;;;;;7.27;1.80;;;14.90;86.90;;;;;;5088115;28;20371;-71
2021/10/06 12:19:59;;;;;;;6.68;1.90;;;14.90;86.80;;;;;;5107431;28;20082;-74
2021/10/06 12:22:38;;;;;;;5.45;1.83;;;15.00;86.50;;;;;;5106451;28;20028;-74
2021/10/06 12:25:14;;;;;;;5.82;1.95;;;15.30;87.00;;;;;;5104103;28;20424;-71
2021/10/06 12:27:47;;;;;;;6.68;1.73;;;15.60;86.30;;;;;;5106587;28;20035;-71
2021/10/06 12:30:19;;;;;;;8.93;1.88;;;15.80;85.10;;;;;;5099061;28;20524;-73
2021/10/06 12:32:48;;;;;;;5.93;1.73;;;15.80;83.90;;;;;;5104189;28;20107;-72
2021/10/06 12:35:22;;;;;;;6.65;1.70;;;15.70;84.60;;;;;;5104508;28;20028;-73
2021/10/06 12:37:55;;;;;;;4.13;1.50;;;15.70;85.40;;;;;;5106225;28;20193;-72
2021/10/06 12:40:39;;;;;;;5.18;1.65;;;15.70;84.70;;;;;;5090265;28;20165;-72
2021/10/06 12:43:12;;;;;;;4.78;1.67;;;15.80;85.10;;;;;;5105366;28;20035;-72
2021/10/06 12:46:07;;;;;;;5.32;1.50;;;16.00;85.50;;;;;;5104181;28;20036;-73
2021/10/06 12:48:46;;;;;;;7.07;1.88;;;16.20;84.50;;;;;;5079508;28;20088;-71
2021/10/06 12:51:17;;;;;;;5.63;1.52;;;16.30;82.70;;;;;;5108069;28;20110;-71